Jamaica, NY (11436)

7:59 AM EDT on October 24, 2014 (GMT -0400)
Floral Park, The Original 11001 Wx Site | Change Station
CLOSE
Current Station
Personal Weather Station
Location: Floral Park, NY
Elevation: 103 ft
Nearby Weather Stations

Elev 103 ft 40.73 °N, 73.71 °W | Updated 2 seconds ago

Mostly Cloudy
Mostly Cloudy
49.4 °F
Feels Like 49 °F
N
2.0
Wind Variable Wind from NNE
Gusts 11.0 mph

Today
High -- | Low -- °F
--% Chance of Precip.
Yesterday
High -- | Low -- °F
Precip. -- in
7:16 AM 6:01 PM
New Moon, 0% visible
Pressure 29.81 in
Visibility 10.0 miles
Clouds Few 2500 ft
Scattered Clouds 10000 ft
Mostly Cloudy 15000 ft
Mostly Cloudy 25000 ft
Windchill 49 °F
Dew Point 46 °F
Humidity 87%
Rainfall 0.00 in
Snow Depth Not available.
UV 0 out of 12
Pollen 1.70 out of 12
Air Quality Not available.
Flu Activity Sporadic
METAR KJFK 241151Z 32010KT 10SM FEW025 SCT100 BKN150 BKN250 11/06 A2981 RMK AO2 SLP095 70003 T01110061 10117 20106 53006 $

More Conditions Fewer Conditions

Pressure 29.81 in
Visibility 10.0 miles
Clouds Few 2500 ft
Scattered Clouds 10000 ft
Mostly Cloudy 15000 ft
Mostly Cloudy 25000 ft
Windchill 49 °F
Dew Point 46 °F
Humidity 87%
Rainfall 0.00 in
Snow Depth Not available.
UV 0 out of 12
Pollen 1.70 out of 12
Air Quality Not available.
Flu Activity Sporadic
METAR KJFK 241151Z 32010KT 10SM FEW025 SCT100 BKN150 BKN250 11/06 A2981 RMK AO2 SLP095 70003 T01110061 10117 20106 53006 $

More Conditions Fewer Conditions

10-Day Weather Forecast

Almanac

Astronomy

Oct. 24, 2014 Rise Set
Actual Time 7:16 AM EDT 6:01 PM EDT
Civil Twilight 6:48 AM EDT 6:29 PM EDT
Nautical Twilight 6:16 AM EDT 7:01 PM EDT
Astronomical Twilight 5:44 AM EDT 7:33 PM EDT
Moon 7:52 AM EDT 6:39 PM EDT
Length of Visible Light 11h 41m
Length of Day
10h 45m
Tomorrow will be 2m 30s shorter.
New Moon, 0% of the Moon is Illuminated
Today
New Moon
Oct 30
First Quarter
Nov 6
Full
Nov 14
Last Quarter
Nov 22
New

Today's Extremes

State Highs State Lows

Community

WunderPhotos

Upload Photos

1,764,526 photos uploaded!

Nearby

Snow Depth

Station Depth Elevation
No new snow has been reported.

Earthquake Activity

City Distance Mag. Time & Date
No recent earthquake activity has been reported nearby.
Minimum magnitude displayed is 2.5.

Coastal Water Temperatures

Place Temperature
Sandy Hook, NJ 57.9 °F
The Battery, NY 62.1 °F
Bergen Point West Reach, NJ 61.0 °F

Nearby Weather Stations